Terminal Aerodrome Forecast
Issued by NWS

Home | Current Version | Previous Version | Text Only | Print | Product List | Glossary On
Versions: 1 2 3 4 5 6 7 8 9 10 11 12 13 14 15 16
000
FTUS43 KICT 281720
TAFSLN
TAF
KSLN 281720Z 2818/2918 21015G24KT P6SM SKC
     FM282300 24011KT P6SM VCTS SCT070CB BKN120
     FM290200 01011KT P6SM VCTS BKN070CB
     FM290700 02010KT P6SM SCT100 BKN150=

USA.gov is the U.S. government's official web portal to all federal, state and local government web resources and services.